sensor_id;sensor_type;location;lat;lon;timestamp;pressure;altitude;pressure_sealevel;temperature;humidity
50859;BME280;36826;47.514;19.056;2023-02-27T00:01:58;100137.69;;;6.23;45.15
50859;BME280;36826;47.514;19.056;2023-02-27T00:04:24;100139.09;;;6.53;44.96
50859;BME280;36826;47.514;19.056;2023-02-27T00:06:49;100138.19;;;6.41;45.17
50859;BME280;36826;47.514;19.056;2023-02-27T00:09:15;100143.44;;;6.54;45.18
50859;BME280;36826;47.514;19.056;2023-02-27T00:11:40;100152.44;;;6.77;44.84
50859;BME280;36826;47.514;19.056;2023-02-27T00:14:08;100157.88;;;6.38;45.30
50859;BME280;36826;47.514;19.056;2023-02-27T00:16:33;100157.13;;;6.73;45.13
50859;BME280;36826;47.514;19.056;2023-02-27T00:18:59;100157.63;;;6.79;45.29
50859;BME280;36826;47.514;19.056;2023-02-27T00:21:27;100163.94;;;7.02;44.63
50859;BME280;36826;47.514;19.056;2023-02-27T00:23:52;100168.91;;;6.58;45.10
50859;BME280;36826;47.514;19.056;2023-02-27T00:26:18;100165.00;;;6.75;45.06
50859;BME280;36826;47.514;19.056;2023-02-27T00:28:43;100165.56;;;6.67;44.97
50859;BME280;36826;47.514;19.056;2023-02-27T00:31:09;100171.47;;;6.84;45.17
50859;BME280;36826;47.514;19.056;2023-02-27T00:33:34;100185.41;;;6.63;44.94
50859;BME280;36826;47.514;19.056;2023-02-27T00:36:01;100185.59;;;6.60;45.40
50859;BME280;36826;47.514;19.056;2023-02-27T00:38:27;100182.19;;;6.58;45.47
50859;BME280;36826;47.514;19.056;2023-02-27T00:40:53;100177.13;;;6.29;46.00
50859;BME280;36826;47.514;19.056;2023-02-27T00:43:19;100185.41;;;6.50;45.38
50859;BME280;36826;47.514;19.056;2023-02-27T00:45:46;100181.63;;;6.28;45.62
50859;BME280;36826;47.514;19.056;2023-02-27T00:48:12;100175.75;;;6.23;45.93
50859;BME280;36826;47.514;19.056;2023-02-27T00:50:37;100181.91;;;6.50;45.17
50859;BME280;36826;47.514;19.056;2023-02-27T00:53:03;100184.31;;;6.53;44.68
50859;BME280;36826;47.514;19.056;2023-02-27T00:55:28;100197.56;;;6.41;45.05
50859;BME280;36826;47.514;19.056;2023-02-27T00:57:54;100197.03;;;6.36;45.46
50859;BME280;36826;47.514;19.056;2023-02-27T01:00:19;100204.38;;;6.07;45.89
50859;BME280;36826;47.514;19.056;2023-02-27T01:02:45;100207.78;;;6.48;45.67
50859;BME280;36826;47.514;19.056;2023-02-27T01:05:10;100206.41;;;6.29;45.35
50859;BME280;36826;47.514;19.056;2023-02-27T01:07:36;100210.66;;;6.44;45.20
50859;BME280;36826;47.514;19.056;2023-02-27T01:10:04;100205.00;;;6.49;45.59
50859;BME280;36826;47.514;19.056;2023-02-27T01:12:29;100215.56;;;6.51;45.14
50859;BME280;36826;47.514;19.056;2023-02-27T01:14:54;100209.91;;;6.55;45.00
50859;BME280;36826;47.514;19.056;2023-02-27T01:17:20;100217.75;;;6.57;45.24
50859;BME280;36826;47.514;19.056;2023-02-27T01:19:45;100211.81;;;6.53;45.31
50859;BME280;36826;47.514;19.056;2023-02-27T01:22:11;100221.72;;;6.51;45.47
50859;BME280;36826;47.514;19.056;2023-02-27T01:24:37;100218.41;;;6.48;45.11
50859;BME280;36826;47.514;19.056;2023-02-27T01:27:03;100220.53;;;6.42;45.74
50859;BME280;36826;47.514;19.056;2023-02-27T01:29:28;100212.56;;;6.42;45.09
50859;BME280;36826;47.514;19.056;2023-02-27T01:31:54;100219.50;;;6.32;45.41
50859;BME280;36826;47.514;19.056;2023-02-27T01:34:19;100213.72;;;6.64;45.19
50859;BME280;36826;47.514;19.056;2023-02-27T01:36:45;100220.00;;;6.63;44.88
50859;BME280;36826;47.514;19.056;2023-02-27T01:39:10;100221.09;;;6.35;45.31
50859;BME280;36826;47.514;19.056;2023-02-27T01:41:36;100216.69;;;5.95;46.20
50859;BME280;36826;47.514;19.056;2023-02-27T01:44:12;100217.28;;;6.26;45.68
50859;BME280;36826;47.514;19.056;2023-02-27T01:46:38;100219.28;;;6.22;45.54
50859;BME280;36826;47.514;19.056;2023-02-27T01:49:21;100220.00;;;5.98;45.66
50859;BME280;36826;47.514;19.056;2023-02-27T01:51:52;100210.13;;;6.13;45.23
50859;BME280;36826;47.514;19.056;2023-02-27T01:54:24;100212.06;;;6.37;44.70
50859;BME280;36826;47.514;19.056;2023-02-27T01:56:50;100215.84;;;5.94;45.60
50859;BME280;36826;47.514;19.056;2023-02-27T01:59:17;100216.28;;;6.01;45.21
50859;BME280;36826;47.514;19.056;2023-02-27T02:01:44;100222.00;;;5.95;44.98
50859;BME280;36826;47.514;19.056;2023-02-27T02:04:46;100223.72;;;5.96;44.92
50859;BME280;36826;47.514;19.056;2023-02-27T02:07:12;100226.41;;;6.09;45.24
50859;BME280;36826;47.514;19.056;2023-02-27T02:09:50;100225.13;;;6.40;44.51
50859;BME280;36826;47.514;19.056;2023-02-27T02:12:19;100234.75;;;5.90;45.58
50859;BME280;36826;47.514;19.056;2023-02-27T02:14:46;100245.69;;;6.12;44.72
50859;BME280;36826;47.514;19.056;2023-02-27T02:20:26;100246.19;;;6.18;44.91
50859;BME280;36826;47.514;19.056;2023-02-27T02:37:37;100266.53;;;6.57;44.60
50859;BME280;36826;47.514;19.056;2023-02-27T02:40:27;100261.31;;;6.56;43.79
50859;BME280;36826;47.514;19.056;2023-02-27T02:48:31;100260.66;;;6.39;44.60
50859;BME280;36826;47.514;19.056;2023-02-27T02:51:16;100270.34;;;6.02;44.67
50859;BME280;36826;47.514;19.056;2023-02-27T02:59:55;100268.63;;;6.65;43.75
50859;BME280;36826;47.514;19.056;2023-02-27T03:02:31;100273.50;;;5.94;44.19
50859;BME280;36826;47.514;19.056;2023-02-27T03:05:03;100273.03;;;5.74;44.72
50859;BME280;36826;47.514;19.056;2023-02-27T03:07:40;100278.75;;;5.68;44.83
50859;BME280;36826;47.514;19.056;2023-02-27T03:12:38;100291.00;;;6.37;44.10
50859;BME280;36826;47.514;19.056;2023-02-27T03:15:12;100285.78;;;6.48;43.84
50859;BME280;36826;47.514;19.056;2023-02-27T03:17:48;100291.00;;;6.75;43.67
50859;BME280;36826;47.514;19.056;2023-02-27T03:20:23;100281.13;;;6.52;43.83
50859;BME280;36826;47.514;19.056;2023-02-27T03:22:54;100288.88;;;6.42;43.29
50859;BME280;36826;47.514;19.056;2023-02-27T03:25:20;100296.41;;;6.22;43.99
50859;BME280;36826;47.514;19.056;2023-02-27T03:28:16;100299.63;;;6.40;43.83
50859;BME280;36826;47.514;19.056;2023-02-27T03:30:52;100297.19;;;6.37;43.40
50859;BME280;36826;47.514;19.056;2023-02-27T03:33:24;100298.47;;;6.44;43.46
50859;BME280;36826;47.514;19.056;2023-02-27T03:35:56;100304.00;;;6.54;43.17
50859;BME280;36826;47.514;19.056;2023-02-27T03:38:33;100311.84;;;6.30;43.92
50859;BME280;36826;47.514;19.056;2023-02-27T03:41:16;100315.91;;;6.74;43.34
50859;BME280;36826;47.514;19.056;2023-02-27T03:46:34;100306.56;;;6.69;42.33
50859;BME280;36826;47.514;19.056;2023-02-27T03:49:01;100316.97;;;6.59;42.87
50859;BME280;36826;47.514;19.056;2023-02-27T03:51:26;100311.31;;;5.44;44.01
50859;BME280;36826;47.514;19.056;2023-02-27T03:54:13;100321.16;;;6.63;43.35
50859;BME280;36826;47.514;19.056;2023-02-27T03:56:50;100324.22;;;6.70;42.95
50859;BME280;36826;47.514;19.056;2023-02-27T03:59:17;100324.50;;;5.86;43.69
50859;BME280;36826;47.514;19.056;2023-02-27T04:01:43;100327.63;;;6.59;43.14
50859;BME280;36826;47.514;19.056;2023-02-27T04:04:14;100317.81;;;6.59;42.56
50859;BME280;36826;47.514;19.056;2023-02-27T04:06:45;100328.94;;;5.73;43.81
50859;BME280;36826;47.514;19.056;2023-02-27T04:09:39;100321.03;;;5.86;42.93
50859;BME280;36826;47.514;19.056;2023-02-27T04:15:06;100322.09;;;6.36;43.63
50859;BME280;36826;47.514;19.056;2023-02-27T04:18:01;100322.63;;;6.28;42.56
50859;BME280;36826;47.514;19.056;2023-02-27T04:20:40;100326.78;;;6.45;43.32
50859;BME280;36826;47.514;19.056;2023-02-27T04:28:39;100336.50;;;6.06;43.39
50859;BME280;36826;47.514;19.056;2023-02-27T04:32:14;100341.13;;;6.30;43.22
50859;BME280;36826;47.514;19.056;2023-02-27T04:37:01;100346.75;;;6.12;43.52
50859;BME280;36826;47.514;19.056;2023-02-27T04:39:35;100349.16;;;6.69;42.57
50859;BME280;36826;47.514;19.056;2023-02-27T04:42:10;100347.09;;;6.98;42.14
50859;BME280;36826;47.514;19.056;2023-02-27T04:44:38;100348.50;;;6.78;42.14
50859;BME280;36826;47.514;19.056;2023-02-27T04:47:07;100348.28;;;6.55;42.42
50859;BME280;36826;47.514;19.056;2023-02-27T04:49:39;100347.75;;;6.50;42.70
50859;BME280;36826;47.514;19.056;2023-02-27T04:52:17;100346.91;;;6.63;42.34
50859;BME280;36826;47.514;19.056;2023-02-27T04:54:51;100350.09;;;6.55;42.48
50859;BME280;36826;47.514;19.056;2023-02-27T04:57:29;100352.00;;;6.66;42.17
50859;BME280;36826;47.514;19.056;2023-02-27T04:59:56;100356.97;;;6.19;42.59
50859;BME280;36826;47.514;19.056;2023-02-27T05:02:32;100355.19;;;6.58;42.56
50859;BME280;36826;47.514;19.056;2023-02-27T05:05:04;100358.03;;;6.29;42.94
50859;BME280;36826;47.514;19.056;2023-02-27T05:07:35;100363.84;;;6.74;42.45
50859;BME280;36826;47.514;19.056;2023-02-27T05:10:13;100359.94;;;6.14;42.61
50859;BME280;36826;47.514;19.056;2023-02-27T05:12:52;100368.38;;;6.34;42.48
50859;BME280;36826;47.514;19.056;2023-02-27T05:15:44;100371.06;;;5.79;42.69
50859;BME280;36826;47.514;19.056;2023-02-27T05:18:15;100385.66;;;6.13;42.89
50859;BME280;36826;47.514;19.056;2023-02-27T05:20:51;100390.16;;;5.98;42.30
50859;BME280;36826;47.514;19.056;2023-02-27T05:23:24;100385.19;;;6.34;42.01
50859;BME280;36826;47.514;19.056;2023-02-27T05:25:59;100385.47;;;6.17;42.15
50859;BME280;36826;47.514;19.056;2023-02-27T05:28:51;100383.50;;;6.33;41.46
50859;BME280;36826;47.514;19.056;2023-02-27T05:31:33;100388.28;;;6.54;41.46
50859;BME280;36826;47.514;19.056;2023-02-27T05:34:15;100399.38;;;6.48;41.38
50859;BME280;36826;47.514;19.056;2023-02-27T05:36:47;100408.94;;;6.37;42.08
50859;BME280;36826;47.514;19.056;2023-02-27T05:39:18;100413.56;;;6.21;41.83
50859;BME280;36826;47.514;19.056;2023-02-27T05:41:53;100409.06;;;6.08;42.02
50859;BME280;36826;47.514;19.056;2023-02-27T05:44:32;100408.50;;;6.03;42.26
50859;BME280;36826;47.514;19.056;2023-02-27T05:47:00;100419.22;;;6.29;41.95
50859;BME280;36826;47.514;19.056;2023-02-27T05:49:40;100419.09;;;5.90;42.57
50859;BME280;36826;47.514;19.056;2023-02-27T05:52:08;100424.47;;;6.43;42.13
50859;BME280;36826;47.514;19.056;2023-02-27T05:54:57;100428.38;;;6.78;41.04
50859;BME280;36826;47.514;19.056;2023-02-27T05:57:32;100427.25;;;6.55;41.39
50859;BME280;36826;47.514;19.056;2023-02-27T06:02:40;100440.59;;;6.81;40.37
50859;BME280;36826;47.514;19.056;2023-02-27T06:05:06;100433.09;;;6.34;41.56
50859;BME280;36826;47.514;19.056;2023-02-27T06:07:33;100441.84;;;5.52;42.45
50859;BME280;36826;47.514;19.056;2023-02-27T06:09:59;100450.38;;;6.14;41.97
50859;BME280;36826;47.514;19.056;2023-02-27T06:12:24;100448.09;;;6.35;41.82
50859;BME280;36826;47.514;19.056;2023-02-27T06:14:50;100454.31;;;6.49;41.94
50859;BME280;36826;47.514;19.056;2023-02-27T06:17:16;100453.22;;;6.38;41.77
50859;BME280;36826;47.514;19.056;2023-02-27T06:19:42;100459.81;;;6.45;42.39
50859;BME280;36826;47.514;19.056;2023-02-27T06:22:08;100466.22;;;6.56;42.52
50859;BME280;36826;47.514;19.056;2023-02-27T06:24:34;100469.69;;;6.03;42.72
50859;BME280;36826;47.514;19.056;2023-02-27T06:26:59;100475.56;;;7.02;41.35
50859;BME280;36826;47.514;19.056;2023-02-27T06:29:25;100481.19;;;6.04;41.99
50859;BME280;36826;47.514;19.056;2023-02-27T06:31:50;100485.03;;;7.19;40.57
50859;BME280;36826;47.514;19.056;2023-02-27T06:34:16;100499.56;;;7.15;40.59
50859;BME280;36826;47.514;19.056;2023-02-27T06:36:41;100499.53;;;7.53;39.63
50859;BME280;36826;47.514;19.056;2023-02-27T06:39:07;100494.78;;;7.83;39.09
50859;BME280;36826;47.514;19.056;2023-02-27T06:41:32;100508.91;;;7.59;39.36
50859;BME280;36826;47.514;19.056;2023-02-27T06:43:58;100512.75;;;7.68;39.11
50859;BME280;36826;47.514;19.056;2023-02-27T06:46:24;100515.00;;;7.98;38.34
50859;BME280;36826;47.514;19.056;2023-02-27T06:48:51;100529.19;;;7.23;39.35
50859;BME280;36826;47.514;19.056;2023-02-27T06:51:16;100529.84;;;7.40;39.02
50859;BME280;36826;47.514;19.056;2023-02-27T06:53:41;100525.28;;;7.92;38.73
50859;BME280;36826;47.514;19.056;2023-02-27T06:56:07;100542.81;;;7.31;39.10
50859;BME280;36826;47.514;19.056;2023-02-27T06:58:32;100536.72;;;7.81;38.47
50859;BME280;36826;47.514;19.056;2023-02-27T07:00:59;100529.34;;;7.85;38.50
50859;BME280;36826;47.514;19.056;2023-02-27T07:03:25;100534.84;;;8.07;38.45
50859;BME280;36826;47.514;19.056;2023-02-27T07:05:51;100538.06;;;7.99;37.99
50859;BME280;36826;47.514;19.056;2023-02-27T07:08:16;100547.84;;;8.49;37.84
50859;BME280;36826;47.514;19.056;2023-02-27T07:10:44;100537.88;;;9.11;37.13
50859;BME280;36826;47.514;19.056;2023-02-27T07:13:12;100546.22;;;7.33;37.85
50859;BME280;36826;47.514;19.056;2023-02-27T07:15:38;100540.66;;;8.25;37.79
50859;BME280;36826;47.514;19.056;2023-02-27T07:18:04;100540.41;;;8.66;36.15
50859;BME280;36826;47.514;19.056;2023-02-27T07:20:30;100540.28;;;8.43;37.51
50859;BME280;36826;47.514;19.056;2023-02-27T07:22:55;100548.44;;;9.71;36.43
50859;BME280;36826;47.514;19.056;2023-02-27T07:25:21;100544.72;;;10.40;35.07
50859;BME280;36826;47.514;19.056;2023-02-27T07:27:46;100547.41;;;8.55;36.20
50859;BME280;36826;47.514;19.056;2023-02-27T07:30:14;100544.97;;;8.52;37.13
50859;BME280;36826;47.514;19.056;2023-02-27T07:32:39;100559.09;;;6.60;39.23
50859;BME280;36826;47.514;19.056;2023-02-27T07:35:06;100567.75;;;7.30;38.37
50859;BME280;36826;47.514;19.056;2023-02-27T07:37:32;100562.78;;;7.64;37.76
50859;BME280;36826;47.514;19.056;2023-02-27T07:39:57;100570.00;;;7.88;37.33
50859;BME280;36826;47.514;19.056;2023-02-27T07:42:23;100565.41;;;7.90;37.00
50859;BME280;36826;47.514;19.056;2023-02-27T07:44:49;100563.66;;;8.15;37.07
50859;BME280;36826;47.514;19.056;2023-02-27T07:47:14;100574.31;;;10.05;35.86
50859;BME280;36826;47.514;19.056;2023-02-27T07:49:42;100570.16;;;10.79;34.05
50859;BME280;36826;47.514;19.056;2023-02-27T07:52:07;100567.81;;;12.01;32.08
50859;BME280;36826;47.514;19.056;2023-02-27T07:54:32;100565.72;;;12.55;31.53
50859;BME280;36826;47.514;19.056;2023-02-27T07:56:58;100559.78;;;12.71;31.12
50859;BME280;36826;47.514;19.056;2023-02-27T07:59:23;100575.28;;;11.66;32.71
50859;BME280;36826;47.514;19.056;2023-02-27T08:01:49;100563.84;;;12.56;31.96
50859;BME280;36826;47.514;19.056;2023-02-27T08:04:15;100566.56;;;13.15;30.88
50859;BME280;36826;47.514;19.056;2023-02-27T08:06:40;100567.03;;;12.20;31.77
50859;BME280;36826;47.514;19.056;2023-02-27T08:09:06;100563.44;;;13.29;30.82
50859;BME280;36826;47.514;19.056;2023-02-27T08:11:31;100570.81;;;12.58;31.50
50859;BME280;36826;47.514;19.056;2023-02-27T08:13:57;100581.22;;;11.70;32.49
50859;BME280;36826;47.514;19.056;2023-02-27T08:16:22;100589.88;;;8.58;34.98
50859;BME280;36826;47.514;19.056;2023-02-27T08:18:48;100601.28;;;7.73;37.00
50859;BME280;36826;47.514;19.056;2023-02-27T08:21:14;100600.31;;;7.48;37.03
50859;BME280;36826;47.514;19.056;2023-02-27T08:23:39;100603.41;;;7.55;37.55
50859;BME280;36826;47.514;19.056;2023-02-27T08:26:05;100607.25;;;7.51;37.45
50859;BME280;36826;47.514;19.056;2023-02-27T08:28:31;100614.69;;;7.72;37.02
50859;BME280;36826;47.514;19.056;2023-02-27T08:30:56;100614.25;;;7.91;37.21
50859;BME280;36826;47.514;19.056;2023-02-27T08:33:22;100612.91;;;8.72;36.42
50859;BME280;36826;47.514;19.056;2023-02-27T08:35:48;100614.16;;;8.55;36.22
50859;BME280;36826;47.514;19.056;2023-02-27T08:38:14;100620.84;;;7.33;38.06
50859;BME280;36826;47.514;19.056;2023-02-27T08:40:39;100631.25;;;8.40;37.26
50859;BME280;36826;47.514;19.056;2023-02-27T08:43:05;100637.94;;;8.08;37.25
50859;BME280;36826;47.514;19.056;2023-02-27T08:45:31;100638.19;;;7.66;37.87
50859;BME280;36826;47.514;19.056;2023-02-27T08:47:56;100651.69;;;7.37;37.85
50859;BME280;36826;47.514;19.056;2023-02-27T08:50:22;100640.50;;;7.84;37.10
50859;BME280;36826;47.514;19.056;2023-02-27T08:52:47;100644.94;;;8.35;36.85
50859;BME280;36826;47.514;19.056;2023-02-27T08:55:14;100643.75;;;9.61;35.42
50859;BME280;36826;47.514;19.056;2023-02-27T08:57:39;100652.31;;;8.82;36.09
50859;BME280;36826;47.514;19.056;2023-02-27T09:00:05;100650.22;;;10.26;34.47
50859;BME280;36826;47.514;19.056;2023-02-27T09:02:32;100651.09;;;8.62;36.34
50859;BME280;36826;47.514;19.056;2023-02-27T09:04:59;100648.91;;;10.21;34.96
50859;BME280;36826;47.514;19.056;2023-02-27T09:07:30;100648.53;;;9.09;35.56
50859;BME280;36826;47.514;19.056;2023-02-27T09:09:56;100644.00;;;8.73;35.45
50859;BME280;36826;47.514;19.056;2023-02-27T09:12:21;100649.94;;;8.90;36.42
50859;BME280;36826;47.514;19.056;2023-02-27T09:14:47;100651.25;;;9.56;34.81
50859;BME280;36826;47.514;19.056;2023-02-27T09:17:12;100659.44;;;8.57;36.16
50859;BME280;36826;47.514;19.056;2023-02-27T09:19:38;100654.00;;;10.58;33.76
50859;BME280;36826;47.514;19.056;2023-02-27T09:22:03;100665.72;;;9.17;35.27
50859;BME280;36826;47.514;19.056;2023-02-27T09:24:29;100657.06;;;8.89;36.04
50859;BME280;36826;47.514;19.056;2023-02-27T09:26:54;100664.13;;;9.50;35.46
50859;BME280;36826;47.514;19.056;2023-02-27T09:29:20;100659.78;;;9.61;34.94
50859;BME280;36826;47.514;19.056;2023-02-27T09:31:48;100655.94;;;10.67;34.22
50859;BME280;36826;47.514;19.056;2023-02-27T09:34:13;100658.66;;;10.44;33.99
50859;BME280;36826;47.514;19.056;2023-02-27T09:36:39;100662.34;;;9.62;34.63
50859;BME280;36826;47.514;19.056;2023-02-27T09:39:04;100659.94;;;10.73;33.85
50859;BME280;36826;47.514;19.056;2023-02-27T09:41:47;100655.59;;;10.26;34.41
50859;BME280;36826;47.514;19.056;2023-02-27T09:44:32;100663.38;;;10.07;35.09
50859;BME280;36826;47.514;19.056;2023-02-27T09:47:02;100662.16;;;8.81;36.48
50859;BME280;36826;47.514;19.056;2023-02-27T09:49:32;100656.06;;;9.97;35.14
50859;BME280;36826;47.514;19.056;2023-02-27T09:52:00;100660.88;;;9.58;35.50
50859;BME280;36826;47.514;19.056;2023-02-27T09:54:30;100679.53;;;7.59;37.60
50859;BME280;36826;47.514;19.056;2023-02-27T09:57:00;100664.28;;;8.13;37.50
50859;BME280;36826;47.514;19.056;2023-02-27T09:59:43;100676.53;;;9.51;36.44
50859;BME280;36826;47.514;19.056;2023-02-27T10:02:33;100675.19;;;10.61;33.81
50859;BME280;36826;47.514;19.056;2023-02-27T10:05:40;100671.38;;;10.75;33.60
50859;BME280;36826;47.514;19.056;2023-02-27T10:08:29;100673.84;;;10.10;34.62
50859;BME280;36826;47.514;19.056;2023-02-27T10:11:06;100688.09;;;8.79;35.50
50859;BME280;36826;47.514;19.056;2023-02-27T10:14:13;100676.84;;;9.71;34.18
50859;BME280;36826;47.514;19.056;2023-02-27T10:16:41;100669.31;;;10.67;33.79
50859;BME280;36826;47.514;19.056;2023-02-27T10:19:14;100677.31;;;9.88;34.53
50859;BME280;36826;47.514;19.056;2023-02-27T10:21:44;100678.31;;;10.89;33.64
50859;BME280;36826;47.514;19.056;2023-02-27T10:26:43;100669.66;;;10.85;33.33
50859;BME280;36826;47.514;19.056;2023-02-27T10:29:28;100669.81;;;9.93;34.20
50859;BME280;36826;47.514;19.056;2023-02-27T10:32:24;100668.84;;;11.39;32.61
50859;BME280;36826;47.514;19.056;2023-02-27T10:34:57;100675.06;;;10.17;33.30
50859;BME280;36826;47.514;19.056;2023-02-27T10:37:28;100668.97;;;10.26;33.43
50859;BME280;36826;47.514;19.056;2023-02-27T10:39:58;100672.47;;;11.49;32.97
50859;BME280;36826;47.514;19.056;2023-02-27T10:42:29;100667.41;;;10.47;33.24
50859;BME280;36826;47.514;19.056;2023-02-27T10:44:56;100670.03;;;9.78;34.61
50859;BME280;36826;47.514;19.056;2023-02-27T10:47:23;100669.56;;;9.85;34.56
50859;BME280;36826;47.514;19.056;2023-02-27T10:49:49;100662.28;;;10.21;33.65
50859;BME280;36826;47.514;19.056;2023-02-27T10:52:16;100661.69;;;10.17;33.85
50859;BME280;36826;47.514;19.056;2023-02-27T10:54:43;100662.28;;;10.43;33.82
50859;BME280;36826;47.514;19.056;2023-02-27T10:59:53;100668.06;;;10.83;33.30
50859;BME280;36826;47.514;19.056;2023-02-27T11:02:47;100669.19;;;9.06;35.16
50859;BME280;36826;47.514;19.056;2023-02-27T11:07:47;100663.28;;;11.51;33.33
50859;BME280;36826;47.514;19.056;2023-02-27T11:12:40;100660.84;;;13.33;31.15
50859;BME280;36826;47.514;19.056;2023-02-27T11:17:40;100666.22;;;13.53;30.97
50859;BME280;36826;47.514;19.056;2023-02-27T11:20:34;100671.69;;;13.90;30.17
50859;BME280;36826;47.514;19.056;2023-02-27T11:23:06;100666.88;;;14.32;29.99
50859;BME280;36826;47.514;19.056;2023-02-27T11:25:35;100671.13;;;13.87;29.70
50859;BME280;36826;47.514;19.056;2023-02-27T11:28:25;100676.97;;;13.33;30.64
50859;BME280;36826;47.514;19.056;2023-02-27T11:30:59;100668.97;;;14.00;30.26
50859;BME280;36826;47.514;19.056;2023-02-27T11:33:27;100682.97;;;12.25;31.54
50859;BME280;36826;47.514;19.056;2023-02-27T11:35:55;100685.81;;;12.34;31.36
50859;BME280;36826;47.514;19.056;2023-02-27T11:38:23;100683.06;;;12.14;31.96
50859;BME280;36826;47.514;19.056;2023-02-27T11:43:24;100682.03;;;12.87;31.20
50859;BME280;36826;47.514;19.056;2023-02-27T11:46:03;100677.53;;;12.47;31.51
50859;BME280;36826;47.514;19.056;2023-02-27T11:48:41;100677.66;;;12.35;31.40
50859;BME280;36826;47.514;19.056;2023-02-27T11:56:09;100678.66;;;13.14;30.83
50859;BME280;36826;47.514;19.056;2023-02-27T11:58:43;100672.88;;;13.58;30.11
50859;BME280;36826;47.514;19.056;2023-02-27T12:01:19;100669.91;;;13.32;30.66
50859;BME280;36826;47.514;19.056;2023-02-27T12:06:56;100666.50;;;13.69;30.03
50859;BME280;36826;47.514;19.056;2023-02-27T12:09:55;100672.03;;;13.58;30.76
50859;BME280;36826;47.514;19.056;2023-02-27T12:12:40;100672.06;;;14.05;29.49
50859;BME280;36826;47.514;19.056;2023-02-27T12:17:58;100672.44;;;13.73;29.74
50859;BME280;36826;47.514;19.056;2023-02-27T12:23:16;100680.72;;;12.00;31.54
50859;BME280;36826;47.514;19.056;2023-02-27T12:25:47;100684.44;;;12.39;31.44
50859;BME280;36826;47.514;19.056;2023-02-27T12:28:26;100685.47;;;13.38;30.60
50859;BME280;36826;47.514;19.056;2023-02-27T12:36:46;100695.72;;;11.81;31.69
50859;BME280;36826;47.514;19.056;2023-02-27T12:39:21;100688.09;;;11.11;32.71
50859;BME280;36826;47.514;19.056;2023-02-27T12:42:06;100693.84;;;12.65;31.77
50859;BME280;36826;47.514;19.056;2023-02-27T12:50:16;100692.00;;;13.16;30.79
50859;BME280;36826;47.514;19.056;2023-02-27T12:53:03;100693.63;;;12.87;30.58
50859;BME280;36826;47.514;19.056;2023-02-27T12:55:41;100696.34;;;11.94;32.11
50859;BME280;36826;47.514;19.056;2023-02-27T13:01:05;100708.41;;;11.79;31.79
50859;BME280;36826;47.514;19.056;2023-02-27T13:03:38;100702.75;;;12.65;31.41
50859;BME280;36826;47.514;19.056;2023-02-27T13:08:49;100701.19;;;13.33;30.49
50859;BME280;36826;47.514;19.056;2023-02-27T13:11:23;100704.06;;;12.71;31.25
50859;BME280;36826;47.514;19.056;2023-02-27T13:14:03;100699.00;;;12.87;30.92
50859;BME280;36826;47.514;19.056;2023-02-27T13:16:38;100702.84;;;12.13;31.84
50859;BME280;36826;47.514;19.056;2023-02-27T13:19:13;100698.63;;;12.20;32.15
50859;BME280;36826;47.514;19.056;2023-02-27T13:22:06;100702.59;;;12.16;32.10
50859;BME280;36826;47.514;19.056;2023-02-27T13:24:29;100700.41;;;12.10;32.05
50859;BME280;36826;47.514;19.056;2023-02-27T13:29:51;100709.41;;;12.61;31.90
50859;BME280;36826;47.514;19.056;2023-02-27T13:32:27;100717.31;;;12.63;31.42
50859;BME280;36826;47.514;19.056;2023-02-27T13:35:11;100713.91;;;13.01;30.79
50859;BME280;36826;47.514;19.056;2023-02-27T13:37:56;100715.81;;;12.80;30.85
50859;BME280;36826;47.514;19.056;2023-02-27T13:40:34;100718.94;;;11.71;31.77
50859;BME280;36826;47.514;19.056;2023-02-27T13:43:35;100712.19;;;11.97;31.92
50859;BME280;36826;47.514;19.056;2023-02-27T13:46:19;100714.75;;;12.51;31.49
50859;BME280;36826;47.514;19.056;2023-02-27T13:48:48;100721.56;;;12.55;31.57
50859;BME280;36826;47.514;19.056;2023-02-27T13:59:24;100710.84;;;12.75;30.89
50859;BME280;36826;47.514;19.056;2023-02-27T14:04:17;100703.00;;;12.21;32.37
50859;BME280;36826;47.514;19.056;2023-02-27T14:06:46;100711.44;;;12.07;32.36
50859;BME280;36826;47.514;19.056;2023-02-27T14:09:17;100712.50;;;12.25;32.10
50859;BME280;36826;47.514;19.056;2023-02-27T14:11:57;100716.00;;;12.47;32.34
50859;BME280;36826;47.514;19.056;2023-02-27T14:14:53;100708.09;;;11.93;32.57
50859;BME280;36826;47.514;19.056;2023-02-27T14:23:20;100706.53;;;12.53;31.88
50859;BME280;36826;47.514;19.056;2023-02-27T14:26:14;100714.81;;;12.09;32.12
50859;BME280;36826;47.514;19.056;2023-02-27T14:28:50;100708.38;;;11.36;33.10
50859;BME280;36826;47.514;19.056;2023-02-27T14:31:32;100702.81;;;11.49;32.60
50859;BME280;36826;47.514;19.056;2023-02-27T14:33:59;100707.34;;;11.91;32.50
50859;BME280;36826;47.514;19.056;2023-02-27T14:36:55;100714.56;;;12.12;32.50
50859;BME280;36826;47.514;19.056;2023-02-27T14:39:26;100710.31;;;11.34;33.50
50859;BME280;36826;47.514;19.056;2023-02-27T14:42:07;100709.06;;;11.92;32.40
50859;BME280;36826;47.514;19.056;2023-02-27T14:44:39;100712.13;;;11.88;32.44
50859;BME280;36826;47.514;19.056;2023-02-27T14:47:14;100717.94;;;11.18;33.40
50859;BME280;36826;47.514;19.056;2023-02-27T14:49:44;100721.91;;;11.35;33.62
50859;BME280;36826;47.514;19.056;2023-02-27T14:52:19;100720.84;;;11.80;32.92
50859;BME280;36826;47.514;19.056;2023-02-27T14:54:46;100721.88;;;11.89;32.19
50859;BME280;36826;47.514;19.056;2023-02-27T14:57:25;100729.56;;;11.40;32.79
50859;BME280;36826;47.514;19.056;2023-02-27T14:59:53;100731.84;;;11.12;33.04
50859;BME280;36826;47.514;19.056;2023-02-27T15:02:26;100724.47;;;11.36;33.56
50859;BME280;36826;47.514;19.056;2023-02-27T15:07:32;100733.28;;;11.60;33.17